sensor_id;sensor_type;location;lat;lon;timestamp;P1;durP1;ratioP1;P2;durP2;ratioP2
59938;SDS011;45801;51.810;19.444;2024-01-16T00:00:21;7.50;;;2.70;;
59938;SDS011;45801;51.810;19.444;2024-01-16T00:03:07;7.20;;;2.70;;
59938;SDS011;45801;51.810;19.444;2024-01-16T00:05:34;8.30;;;2.80;;
59938;SDS011;45801;51.810;19.444;2024-01-16T00:08:02;8.10;;;3.00;;
59938;SDS011;45801;51.810;19.444;2024-01-16T00:10:29;9.00;;;2.70;;
59938;SDS011;45801;51.810;19.444;2024-01-16T00:12:58;7.60;;;2.70;;
59938;SDS011;45801;51.810;19.444;2024-01-16T00:15:24;9.30;;;3.90;;
59938;SDS011;45801;51.810;19.444;2024-01-16T00:17:51;9.20;;;3.30;;
59938;SDS011;45801;51.810;19.444;2024-01-16T00:20:18;8.60;;;3.20;;
59938;SDS011;45801;51.810;19.444;2024-01-16T00:22:45;6.20;;;2.30;;
59938;SDS011;45801;51.810;19.444;2024-01-16T00:25:12;6.10;;;2.20;;
59938;SDS011;45801;51.810;19.444;2024-01-16T00:27:38;8.50;;;2.60;;
59938;SDS011;45801;51.810;19.444;2024-01-16T00:30:05;6.30;;;2.00;;
59938;SDS011;45801;51.810;19.444;2024-01-16T00:32:33;6.80;;;2.60;;
59938;SDS011;45801;51.810;19.444;2024-01-16T00:34:59;6.40;;;2.00;;
59938;SDS011;45801;51.810;19.444;2024-01-16T00:37:26;5.50;;;2.00;;
59938;SDS011;45801;51.810;19.444;2024-01-16T00:39:53;5.60;;;1.90;;
59938;SDS011;45801;51.810;19.444;2024-01-16T00:42:21;7.80;;;2.40;;
59938;SDS011;45801;51.810;19.444;2024-01-16T00:44:47;6.20;;;1.90;;
59938;SDS011;45801;51.810;19.444;2024-01-16T00:47:15;5.20;;;1.40;;
59938;SDS011;45801;51.810;19.444;2024-01-16T00:49:41;6.00;;;1.90;;
59938;SDS011;45801;51.810;19.444;2024-01-16T00:52:08;4.00;;;1.50;;
59938;SDS011;45801;51.810;19.444;2024-01-16T00:54:36;2.90;;;1.30;;
59938;SDS011;45801;51.810;19.444;2024-01-16T00:57:03;3.60;;;1.30;;
59938;SDS011;45801;51.810;19.444;2024-01-16T00:59:29;4.50;;;1.40;;
59938;SDS011;45801;51.810;19.444;2024-01-16T01:01:56;2.90;;;1.30;;
59938;SDS011;45801;51.810;19.444;2024-01-16T01:04:22;4.70;;;1.20;;
59938;SDS011;45801;51.810;19.444;2024-01-16T01:06:49;3.30;;;1.00;;
59938;SDS011;45801;51.810;19.444;2024-01-16T01:09:16;3.10;;;1.20;;
59938;SDS011;45801;51.810;19.444;2024-01-16T01:11:43;3.60;;;1.20;;
59938;SDS011;45801;51.810;19.444;2024-01-16T01:14:09;2.50;;;1.10;;
59938;SDS011;45801;51.810;19.444;2024-01-16T01:16:36;3.60;;;1.70;;
59938;SDS011;45801;51.810;19.444;2024-01-16T01:19:03;4.20;;;1.50;;
59938;SDS011;45801;51.810;19.444;2024-01-16T01:21:29;3.60;;;1.30;;
59938;SDS011;45801;51.810;19.444;2024-01-16T01:23:56;4.50;;;1.70;;
59938;SDS011;45801;51.810;19.444;2024-01-16T01:26:22;4.90;;;1.30;;
59938;SDS011;45801;51.810;19.444;2024-01-16T01:28:49;5.40;;;1.50;;
59938;SDS011;45801;51.810;19.444;2024-01-16T01:31:16;6.20;;;1.60;;
59938;SDS011;45801;51.810;19.444;2024-01-16T01:33:42;4.00;;;1.60;;
59938;SDS011;45801;51.810;19.444;2024-01-16T01:36:09;4.10;;;2.10;;
59938;SDS011;45801;51.810;19.444;2024-01-16T01:38:36;3.50;;;1.40;;
59938;SDS011;45801;51.810;19.444;2024-01-16T01:41:02;4.60;;;1.50;;
59938;SDS011;45801;51.810;19.444;2024-01-16T01:43:29;4.60;;;1.50;;
59938;SDS011;45801;51.810;19.444;2024-01-16T01:48:31;5.10;;;1.50;;
59938;SDS011;45801;51.810;19.444;2024-01-16T01:50:59;4.50;;;1.60;;
59938;SDS011;45801;51.810;19.444;2024-01-16T01:53:28;4.80;;;1.80;;
59938;SDS011;45801;51.810;19.444;2024-01-16T01:55:57;7.80;;;2.40;;
59938;SDS011;45801;51.810;19.444;2024-01-16T01:58:23;6.60;;;2.10;;
59938;SDS011;45801;51.810;19.444;2024-01-16T02:00:50;6.50;;;1.90;;
59938;SDS011;45801;51.810;19.444;2024-01-16T02:03:17;6.50;;;2.00;;
59938;SDS011;45801;51.810;19.444;2024-01-16T02:05:44;6.10;;;2.10;;
59938;SDS011;45801;51.810;19.444;2024-01-16T02:08:11;6.20;;;2.00;;
59938;SDS011;45801;51.810;19.444;2024-01-16T02:10:38;8.60;;;2.70;;
59938;SDS011;45801;51.810;19.444;2024-01-16T02:13:09;7.10;;;2.30;;
59938;SDS011;45801;51.810;19.444;2024-01-16T02:15:35;7.70;;;2.80;;
59938;SDS011;45801;51.810;19.444;2024-01-16T02:18:02;8.50;;;3.00;;
59938;SDS011;45801;51.810;19.444;2024-01-16T02:20:29;8.70;;;3.10;;
59938;SDS011;45801;51.810;19.444;2024-01-16T02:22:56;9.60;;;3.60;;
59938;SDS011;45801;51.810;19.444;2024-01-16T02:25:28;7.30;;;2.30;;
59938;SDS011;45801;51.810;19.444;2024-01-16T02:27:55;7.80;;;3.00;;
59938;SDS011;45801;51.810;19.444;2024-01-16T02:30:22;8.50;;;2.70;;
59938;SDS011;45801;51.810;19.444;2024-01-16T02:32:49;5.90;;;2.60;;
59938;SDS011;45801;51.810;19.444;2024-01-16T02:35:15;6.90;;;2.40;;
59938;SDS011;45801;51.810;19.444;2024-01-16T02:37:43;8.00;;;2.40;;
59938;SDS011;45801;51.810;19.444;2024-01-16T02:40:11;7.80;;;2.60;;
59938;SDS011;45801;51.810;19.444;2024-01-16T02:42:38;6.70;;;2.90;;
59938;SDS011;45801;51.810;19.444;2024-01-16T02:45:05;6.30;;;2.40;;
59938;SDS011;45801;51.810;19.444;2024-01-16T02:47:33;6.30;;;2.20;;
59938;SDS011;45801;51.810;19.444;2024-01-16T02:50:00;7.60;;;2.80;;
59938;SDS011;45801;51.810;19.444;2024-01-16T02:52:26;5.90;;;2.00;;
59938;SDS011;45801;51.810;19.444;2024-01-16T02:54:53;7.40;;;2.10;;
59938;SDS011;45801;51.810;19.444;2024-01-16T02:57:21;8.30;;;2.60;;
59938;SDS011;45801;51.810;19.444;2024-01-16T02:59:47;6.00;;;2.00;;
59938;SDS011;45801;51.810;19.444;2024-01-16T03:02:14;6.70;;;2.30;;
59938;SDS011;45801;51.810;19.444;2024-01-16T03:04:40;7.60;;;2.70;;
59938;SDS011;45801;51.810;19.444;2024-01-16T03:07:07;7.40;;;2.80;;
59938;SDS011;45801;51.810;19.444;2024-01-16T03:09:34;9.90;;;2.50;;
59938;SDS011;45801;51.810;19.444;2024-01-16T03:12:00;7.10;;;2.40;;
59938;SDS011;45801;51.810;19.444;2024-01-16T03:14:27;7.90;;;2.50;;
59938;SDS011;45801;51.810;19.444;2024-01-16T03:16:54;8.70;;;4.00;;
59938;SDS011;45801;51.810;19.444;2024-01-16T03:19:21;5.20;;;2.40;;
59938;SDS011;45801;51.810;19.444;2024-01-16T03:21:48;6.60;;;2.70;;
59938;SDS011;45801;51.810;19.444;2024-01-16T03:24:15;9.40;;;3.90;;
59938;SDS011;45801;51.810;19.444;2024-01-16T03:26:42;7.60;;;3.10;;
59938;SDS011;45801;51.810;19.444;2024-01-16T03:29:10;7.90;;;2.90;;
59938;SDS011;45801;51.810;19.444;2024-01-16T03:31:37;6.60;;;2.50;;
59938;SDS011;45801;51.810;19.444;2024-01-16T03:34:04;7.10;;;2.20;;
59938;SDS011;45801;51.810;19.444;2024-01-16T03:36:30;6.60;;;2.60;;
59938;SDS011;45801;51.810;19.444;2024-01-16T03:38:57;6.40;;;2.40;;
59938;SDS011;45801;51.810;19.444;2024-01-16T03:41:24;7.00;;;2.40;;
59938;SDS011;45801;51.810;19.444;2024-01-16T03:43:50;6.70;;;2.10;;
59938;SDS011;45801;51.810;19.444;2024-01-16T03:46:17;5.60;;;1.70;;
59938;SDS011;45801;51.810;19.444;2024-01-16T03:48:43;5.20;;;2.00;;
59938;SDS011;45801;51.810;19.444;2024-01-16T03:51:10;4.30;;;1.60;;
59938;SDS011;45801;51.810;19.444;2024-01-16T03:53:37;6.60;;;2.80;;
59938;SDS011;45801;51.810;19.444;2024-01-16T03:56:03;6.20;;;2.10;;
59938;SDS011;45801;51.810;19.444;2024-01-16T03:58:30;6.10;;;2.60;;
59938;SDS011;45801;51.810;19.444;2024-01-16T04:00:57;5.00;;;1.90;;
59938;SDS011;45801;51.810;19.444;2024-01-16T04:03:23;6.20;;;2.00;;
59938;SDS011;45801;51.810;19.444;2024-01-16T04:05:50;5.10;;;1.60;;
59938;SDS011;45801;51.810;19.444;2024-01-16T04:08:16;7.70;;;2.00;;
59938;SDS011;45801;51.810;19.444;2024-01-16T04:10:43;6.00;;;1.60;;
59938;SDS011;45801;51.810;19.444;2024-01-16T04:13:10;3.50;;;1.50;;
59938;SDS011;45801;51.810;19.444;2024-01-16T04:15:37;6.30;;;1.80;;
59938;SDS011;45801;51.810;19.444;2024-01-16T04:18:06;3.80;;;1.50;;
59938;SDS011;45801;51.810;19.444;2024-01-16T04:20:33;4.60;;;1.50;;
59938;SDS011;45801;51.810;19.444;2024-01-16T04:22:59;3.40;;;1.30;;
59938;SDS011;45801;51.810;19.444;2024-01-16T04:25:26;6.70;;;1.90;;
59938;SDS011;45801;51.810;19.444;2024-01-16T04:27:52;4.50;;;1.40;;
59938;SDS011;45801;51.810;19.444;2024-01-16T04:30:19;3.30;;;1.40;;
59938;SDS011;45801;51.810;19.444;2024-01-16T04:32:46;5.00;;;1.60;;
59938;SDS011;45801;51.810;19.444;2024-01-16T04:35:13;5.00;;;1.60;;
59938;SDS011;45801;51.810;19.444;2024-01-16T04:37:42;5.50;;;1.90;;
59938;SDS011;45801;51.810;19.444;2024-01-16T04:40:09;5.80;;;1.60;;
59938;SDS011;45801;51.810;19.444;2024-01-16T04:42:36;4.40;;;1.70;;
59938;SDS011;45801;51.810;19.444;2024-01-16T04:45:02;6.80;;;2.10;;
59938;SDS011;45801;51.810;19.444;2024-01-16T04:47:29;6.80;;;2.70;;
59938;SDS011;45801;51.810;19.444;2024-01-16T04:49:57;5.70;;;2.20;;
59938;SDS011;45801;51.810;19.444;2024-01-16T04:52:24;6.90;;;2.30;;
59938;SDS011;45801;51.810;19.444;2024-01-16T04:54:57;7.90;;;2.70;;
59938;SDS011;45801;51.810;19.444;2024-01-16T04:57:23;7.00;;;2.30;;
59938;SDS011;45801;51.810;19.444;2024-01-16T04:59:50;6.80;;;2.20;;
59938;SDS011;45801;51.810;19.444;2024-01-16T05:02:17;6.50;;;2.60;;
59938;SDS011;45801;51.810;19.444;2024-01-16T05:04:45;6.70;;;2.10;;
59938;SDS011;45801;51.810;19.444;2024-01-16T05:07:15;5.10;;;1.80;;
59938;SDS011;45801;51.810;19.444;2024-01-16T05:09:43;6.40;;;1.90;;
59938;SDS011;45801;51.810;19.444;2024-01-16T05:12:10;5.40;;;1.80;;
59938;SDS011;45801;51.810;19.444;2024-01-16T05:14:36;6.40;;;2.30;;
59938;SDS011;45801;51.810;19.444;2024-01-16T05:17:03;5.10;;;1.90;;
59938;SDS011;45801;51.810;19.444;2024-01-16T05:19:30;5.60;;;1.80;;
59938;SDS011;45801;51.810;19.444;2024-01-16T05:21:56;5.80;;;1.70;;
59938;SDS011;45801;51.810;19.444;2024-01-16T05:24:23;4.80;;;1.70;;
59938;SDS011;45801;51.810;19.444;2024-01-16T05:26:49;5.40;;;1.30;;
59938;SDS011;45801;51.810;19.444;2024-01-16T05:29:17;6.80;;;1.50;;
59938;SDS011;45801;51.810;19.444;2024-01-16T05:31:44;4.80;;;1.90;;
59938;SDS011;45801;51.810;19.444;2024-01-16T05:34:18;5.20;;;1.80;;
59938;SDS011;45801;51.810;19.444;2024-01-16T05:36:45;6.90;;;1.90;;
59938;SDS011;45801;51.810;19.444;2024-01-16T05:39:11;5.70;;;2.50;;
59938;SDS011;45801;51.810;19.444;2024-01-16T05:41:38;6.20;;;2.10;;
59938;SDS011;45801;51.810;19.444;2024-01-16T05:44:04;5.30;;;1.90;;
59938;SDS011;45801;51.810;19.444;2024-01-16T05:46:31;5.20;;;1.80;;
59938;SDS011;45801;51.810;19.444;2024-01-16T05:48:58;5.90;;;2.00;;
59938;SDS011;45801;51.810;19.444;2024-01-16T05:51:26;5.90;;;1.60;;
59938;SDS011;45801;51.810;19.444;2024-01-16T05:53:54;7.10;;;2.10;;
59938;SDS011;45801;51.810;19.444;2024-01-16T05:56:21;6.50;;;2.20;;
59938;SDS011;45801;51.810;19.444;2024-01-16T05:58:47;6.60;;;2.40;;
59938;SDS011;45801;51.810;19.444;2024-01-16T06:01:14;5.10;;;1.80;;
59938;SDS011;45801;51.810;19.444;2024-01-16T06:03:40;5.50;;;1.60;;
59938;SDS011;45801;51.810;19.444;2024-01-16T06:06:07;5.70;;;2.10;;
59938;SDS011;45801;51.810;19.444;2024-01-16T06:08:34;8.50;;;3.20;;
59938;SDS011;45801;51.810;19.444;2024-01-16T06:11:00;7.90;;;2.80;;
59938;SDS011;45801;51.810;19.444;2024-01-16T06:13:27;7.30;;;2.30;;
59938;SDS011;45801;51.810;19.444;2024-01-16T06:15:54;8.20;;;2.40;;
59938;SDS011;45801;51.810;19.444;2024-01-16T06:18:20;7.00;;;2.50;;
59938;SDS011;45801;51.810;19.444;2024-01-16T06:20:49;7.80;;;2.50;;
59938;SDS011;45801;51.810;19.444;2024-01-16T06:23:16;7.90;;;2.50;;
59938;SDS011;45801;51.810;19.444;2024-01-16T06:25:42;7.50;;;2.60;;
59938;SDS011;45801;51.810;19.444;2024-01-16T06:28:09;8.80;;;2.50;;
59938;SDS011;45801;51.810;19.444;2024-01-16T06:30:35;8.10;;;2.60;;
59938;SDS011;45801;51.810;19.444;2024-01-16T06:33:02;7.70;;;3.00;;
59938;SDS011;45801;51.810;19.444;2024-01-16T06:35:29;8.60;;;3.20;;
59938;SDS011;45801;51.810;19.444;2024-01-16T06:37:55;7.90;;;3.20;;
59938;SDS011;45801;51.810;19.444;2024-01-16T06:40:22;9.30;;;2.70;;
59938;SDS011;45801;51.810;19.444;2024-01-16T06:42:50;7.50;;;2.90;;
59938;SDS011;45801;51.810;19.444;2024-01-16T06:45:16;11.60;;;3.20;;
59938;SDS011;45801;51.810;19.444;2024-01-16T06:47:43;12.10;;;5.40;;
59938;SDS011;45801;51.810;19.444;2024-01-16T06:50:09;14.40;;;5.30;;
59938;SDS011;45801;51.810;19.444;2024-01-16T06:52:36;17.80;;;8.20;;
59938;SDS011;45801;51.810;19.444;2024-01-16T06:55:03;21.10;;;8.80;;
59938;SDS011;45801;51.810;19.444;2024-01-16T06:57:29;17.80;;;8.50;;
59938;SDS011;45801;51.810;19.444;2024-01-16T06:59:56;19.60;;;9.80;;
59938;SDS011;45801;51.810;19.444;2024-01-16T07:02:22;19.80;;;9.10;;
59938;SDS011;45801;51.810;19.444;2024-01-16T07:04:50;13.30;;;5.80;;
59938;SDS011;45801;51.810;19.444;2024-01-16T07:07:18;11.80;;;5.60;;
59938;SDS011;45801;51.810;19.444;2024-01-16T07:09:45;10.10;;;4.10;;
59938;SDS011;45801;51.810;19.444;2024-01-16T07:12:12;11.20;;;3.80;;
59938;SDS011;45801;51.810;19.444;2024-01-16T07:14:38;11.20;;;4.20;;
59938;SDS011;45801;51.810;19.444;2024-01-16T07:17:06;9.90;;;3.90;;
59938;SDS011;45801;51.810;19.444;2024-01-16T07:19:34;9.60;;;3.80;;
59938;SDS011;45801;51.810;19.444;2024-01-16T07:22:00;8.80;;;3.60;;
59938;SDS011;45801;51.810;19.444;2024-01-16T07:24:27;8.60;;;3.00;;
59938;SDS011;45801;51.810;19.444;2024-01-16T07:26:54;9.60;;;3.10;;
59938;SDS011;45801;51.810;19.444;2024-01-16T07:29:20;8.80;;;3.10;;
59938;SDS011;45801;51.810;19.444;2024-01-16T07:31:47;9.40;;;3.60;;
59938;SDS011;45801;51.810;19.444;2024-01-16T07:34:14;9.00;;;3.50;;
59938;SDS011;45801;51.810;19.444;2024-01-16T07:36:46;10.50;;;4.60;;
59938;SDS011;45801;51.810;19.444;2024-01-16T07:39:12;12.30;;;4.70;;
59938;SDS011;45801;51.810;19.444;2024-01-16T07:41:40;10.50;;;4.00;;
59938;SDS011;45801;51.810;19.444;2024-01-16T07:44:07;10.80;;;4.40;;
59938;SDS011;45801;51.810;19.444;2024-01-16T07:46:34;13.80;;;5.30;;
59938;SDS011;45801;51.810;19.444;2024-01-16T07:49:00;11.90;;;6.00;;
59938;SDS011;45801;51.810;19.444;2024-01-16T07:51:27;12.40;;;5.90;;
59938;SDS011;45801;51.810;19.444;2024-01-16T07:54:04;14.10;;;7.10;;
59938;SDS011;45801;51.810;19.444;2024-01-16T07:56:33;13.30;;;8.10;;
59938;SDS011;45801;51.810;19.444;2024-01-16T07:59:00;17.50;;;9.90;;
59938;SDS011;45801;51.810;19.444;2024-01-16T08:01:28;16.80;;;9.80;;
59938;SDS011;45801;51.810;19.444;2024-01-16T08:03:55;13.80;;;6.70;;
59938;SDS011;45801;51.810;19.444;2024-01-16T08:06:22;12.90;;;5.60;;
59938;SDS011;45801;51.810;19.444;2024-01-16T08:08:49;11.40;;;5.60;;
59938;SDS011;45801;51.810;19.444;2024-01-16T08:11:18;11.30;;;5.10;;
59938;SDS011;45801;51.810;19.444;2024-01-16T08:13:45;10.70;;;4.60;;
59938;SDS011;45801;51.810;19.444;2024-01-16T08:16:11;11.80;;;4.60;;
59938;SDS011;45801;51.810;19.444;2024-01-16T08:18:38;12.30;;;4.30;;
59938;SDS011;45801;51.810;19.444;2024-01-16T08:21:04;10.50;;;4.10;;
59938;SDS011;45801;51.810;19.444;2024-01-16T08:23:32;12.70;;;4.80;;
59938;SDS011;45801;51.810;19.444;2024-01-16T08:25:58;9.50;;;4.00;;
59938;SDS011;45801;51.810;19.444;2024-01-16T08:28:25;9.50;;;4.10;;
59938;SDS011;45801;51.810;19.444;2024-01-16T08:30:52;8.60;;;3.50;;
59938;SDS011;45801;51.810;19.444;2024-01-16T08:33:19;7.70;;;3.70;;
59938;SDS011;45801;51.810;19.444;2024-01-16T08:35:45;9.80;;;3.40;;
59938;SDS011;45801;51.810;19.444;2024-01-16T08:38:12;10.60;;;3.70;;
59938;SDS011;45801;51.810;19.444;2024-01-16T08:40:38;11.00;;;4.00;;
59938;SDS011;45801;51.810;19.444;2024-01-16T08:43:07;10.50;;;3.10;;
59938;SDS011;45801;51.810;19.444;2024-01-16T08:45:33;11.20;;;3.60;;
59938;SDS011;45801;51.810;19.444;2024-01-16T08:48:00;9.90;;;3.10;;
59938;SDS011;45801;51.810;19.444;2024-01-16T08:50:28;7.90;;;3.10;;
59938;SDS011;45801;51.810;19.444;2024-01-16T08:52:55;7.80;;;3.60;;
59938;SDS011;45801;51.810;19.444;2024-01-16T08:55:21;7.90;;;3.00;;
59938;SDS011;45801;51.810;19.444;2024-01-16T08:57:48;10.60;;;3.60;;
59938;SDS011;45801;51.810;19.444;2024-01-16T09:00:14;9.30;;;3.60;;
59938;SDS011;45801;51.810;19.444;2024-01-16T09:02:41;9.50;;;3.40;;
59938;SDS011;45801;51.810;19.444;2024-01-16T09:05:08;10.30;;;3.80;;
59938;SDS011;45801;51.810;19.444;2024-01-16T09:07:34;7.20;;;2.80;;
59938;SDS011;45801;51.810;19.444;2024-01-16T09:10:01;9.20;;;3.00;;
59938;SDS011;45801;51.810;19.444;2024-01-16T09:12:27;8.20;;;2.40;;
59938;SDS011;45801;51.810;19.444;2024-01-16T09:14:54;6.10;;;2.80;;
59938;SDS011;45801;51.810;19.444;2024-01-16T09:17:21;7.40;;;2.60;;
59938;SDS011;45801;51.810;19.444;2024-01-16T09:19:47;8.40;;;3.10;;
59938;SDS011;45801;51.810;19.444;2024-01-16T09:22:14;5.30;;;2.10;;
59938;SDS011;45801;51.810;19.444;2024-01-16T09:24:42;6.80;;;2.40;;
59938;SDS011;45801;51.810;19.444;2024-01-16T09:27:09;7.80;;;2.40;;
59938;SDS011;45801;51.810;19.444;2024-01-16T09:29:36;7.60;;;2.60;;
59938;SDS011;45801;51.810;19.444;2024-01-16T09:32:02;10.10;;;2.90;;
59938;SDS011;45801;51.810;19.444;2024-01-16T09:34:29;7.40;;;2.60;;
59938;SDS011;45801;51.810;19.444;2024-01-16T09:36:55;7.20;;;3.00;;
59938;SDS011;45801;51.810;19.444;2024-01-16T09:39:25;7.80;;;2.80;;
59938;SDS011;45801;51.810;19.444;2024-01-16T09:41:51;6.20;;;2.80;;
59938;SDS011;45801;51.810;19.444;2024-01-16T09:44:18;8.30;;;2.90;;
59938;SDS011;45801;51.810;19.444;2024-01-16T09:46:45;8.30;;;2.60;;
59938;SDS011;45801;51.810;19.444;2024-01-16T09:49:15;6.50;;;2.40;;
59938;SDS011;45801;51.810;19.444;2024-01-16T09:51:43;7.00;;;2.30;;
59938;SDS011;45801;51.810;19.444;2024-01-16T09:54:10;7.30;;;2.50;;
59938;SDS011;45801;51.810;19.444;2024-01-16T09:56:46;7.00;;;2.20;;
59938;SDS011;45801;51.810;19.444;2024-01-16T09:59:17;7.10;;;2.50;;
59938;SDS011;45801;51.810;19.444;2024-01-16T10:01:44;7.40;;;2.80;;
59938;SDS011;45801;51.810;19.444;2024-01-16T10:04:11;6.20;;;2.50;;
59938;SDS011;45801;51.810;19.444;2024-01-16T10:06:38;8.10;;;3.30;;
59938;SDS011;45801;51.810;19.444;2024-01-16T10:09:05;7.50;;;2.50;;
59938;SDS011;45801;51.810;19.444;2024-01-16T10:11:33;8.10;;;2.70;;
59938;SDS011;45801;51.810;19.444;2024-01-16T10:14:00;6.50;;;2.40;;
59938;SDS011;45801;51.810;19.444;2024-01-16T10:19:27;5.50;;;2.10;;
59938;SDS011;45801;51.810;19.444;2024-01-16T10:22:00;6.30;;;2.40;;
59938;SDS011;45801;51.810;19.444;2024-01-16T10:27:36;5.00;;;1.70;;
59938;SDS011;45801;51.810;19.444;2024-01-16T10:30:03;5.20;;;2.20;;
59938;SDS011;45801;51.810;19.444;2024-01-16T10:32:31;7.20;;;2.50;;
59938;SDS011;45801;51.810;19.444;2024-01-16T10:35:03;5.80;;;2.50;;
59938;SDS011;45801;51.810;19.444;2024-01-16T10:37:41;6.90;;;2.30;;
59938;SDS011;45801;51.810;19.444;2024-01-16T10:40:15;7.20;;;2.30;;
59938;SDS011;45801;51.810;19.444;2024-01-16T10:42:42;7.10;;;2.60;;
59938;SDS011;45801;51.810;19.444;2024-01-16T10:45:15;6.00;;;2.20;;
59938;SDS011;45801;51.810;19.444;2024-01-16T10:47:48;9.20;;;2.70;;
59938;SDS011;45801;51.810;19.444;2024-01-16T10:50:16;9.20;;;3.10;;
59938;SDS011;45801;51.810;19.444;2024-01-16T10:52:46;6.10;;;2.50;;
59938;SDS011;45801;51.810;19.444;2024-01-16T10:55:24;7.50;;;3.40;;
59938;SDS011;45801;51.810;19.444;2024-01-16T11:00:21;8.20;;;2.90;;
59938;SDS011;45801;51.810;19.444;2024-01-16T11:05:17;7.40;;;3.00;;
59938;SDS011;45801;51.810;19.444;2024-01-16T11:07:45;8.60;;;3.00;;
59938;SDS011;45801;51.810;19.444;2024-01-16T11:10:13;8.80;;;3.50;;
59938;SDS011;45801;51.810;19.444;2024-01-16T11:12:40;8.00;;;2.90;;
59938;SDS011;45801;51.810;19.444;2024-01-16T11:15:08;7.50;;;2.90;;
59938;SDS011;45801;51.810;19.444;2024-01-16T11:17:38;7.10;;;2.70;;
59938;SDS011;45801;51.810;19.444;2024-01-16T11:20:08;9.90;;;3.20;;
59938;SDS011;45801;51.810;19.444;2024-01-16T11:22:41;7.70;;;2.90;;
59938;SDS011;45801;51.810;19.444;2024-01-16T11:25:13;8.10;;;3.40;;
59938;SDS011;45801;51.810;19.444;2024-01-16T11:27:43;7.30;;;3.00;;
59938;SDS011;45801;51.810;19.444;2024-01-16T11:30:11;8.50;;;3.20;;
59938;SDS011;45801;51.810;19.444;2024-01-16T11:32:39;8.30;;;3.30;;
59938;SDS011;45801;51.810;19.444;2024-01-16T11:35:09;9.00;;;4.20;;
59938;SDS011;45801;51.810;19.444;2024-01-16T11:37:39;6.80;;;2.90;;
59938;SDS011;45801;51.810;19.444;2024-01-16T11:42:48;9.70;;;3.70;;
59938;SDS011;45801;51.810;19.444;2024-01-16T11:48:14;8.50;;;2.80;;
59938;SDS011;45801;51.810;19.444;2024-01-16T11:50:45;9.10;;;3.60;;
59938;SDS011;45801;51.810;19.444;2024-01-16T12:01:50;8.80;;;3.30;;
59938;SDS011;45801;51.810;19.444;2024-01-16T12:04:19;8.20;;;3.90;;
59938;SDS011;45801;51.810;19.444;2024-01-16T12:07:07;7.90;;;3.30;;
59938;SDS011;45801;51.810;19.444;2024-01-16T12:09:34;7.60;;;2.50;;
59938;SDS011;45801;51.810;19.444;2024-01-16T12:12:01;9.50;;;3.60;;
59938;SDS011;45801;51.810;19.444;2024-01-16T12:14:29;12.10;;;4.60;;
59938;SDS011;45801;51.810;19.444;2024-01-16T12:17:12;7.80;;;3.70;;
59938;SDS011;45801;51.810;19.444;2024-01-16T12:19:40;8.50;;;4.20;;
59938;SDS011;45801;51.810;19.444;2024-01-16T12:22:08;12.80;;;4.50;;
59938;SDS011;45801;51.810;19.444;2024-01-16T12:24:38;11.30;;;5.30;;
59938;SDS011;45801;51.810;19.444;2024-01-16T12:27:05;9.80;;;4.30;;
59938;SDS011;45801;51.810;19.444;2024-01-16T12:29:32;10.60;;;4.90;;
59938;SDS011;45801;51.810;19.444;2024-01-16T12:32:05;12.90;;;5.00;;
59938;SDS011;45801;51.810;19.444;2024-01-16T12:34:45;11.30;;;4.90;;
59938;SDS011;45801;51.810;19.444;2024-01-16T12:37:15;12.00;;;5.30;;
59938;SDS011;45801;51.810;19.444;2024-01-16T12:39:42;11.70;;;5.40;;
59938;SDS011;45801;51.810;19.444;2024-01-16T12:42:09;14.80;;;5.20;;
59938;SDS011;45801;51.810;19.444;2024-01-16T12:44:36;11.50;;;5.20;;
59938;SDS011;45801;51.810;19.444;2024-01-16T12:47:03;13.40;;;5.70;;
59938;SDS011;45801;51.810;19.444;2024-01-16T12:49:30;10.20;;;4.40;;
59938;SDS011;45801;51.810;19.444;2024-01-16T12:52:16;10.30;;;4.80;;
59938;SDS011;45801;51.810;19.444;2024-01-16T12:54:44;11.50;;;4.50;;
59938;SDS011;45801;51.810;19.444;2024-01-16T12:57:16;8.80;;;4.80;;
59938;SDS011;45801;51.810;19.444;2024-01-16T12:59:43;10.40;;;4.50;;
59938;SDS011;45801;51.810;19.444;2024-01-16T13:02:10;8.60;;;3.50;;
59938;SDS011;45801;51.810;19.444;2024-01-16T13:04:37;9.20;;;4.20;;
59938;SDS011;45801;51.810;19.444;2024-01-16T13:07:04;11.80;;;4.50;;
59938;SDS011;45801;51.810;19.444;2024-01-16T13:09:33;10.40;;;5.00;;
59938;SDS011;45801;51.810;19.444;2024-01-16T13:12:00;11.80;;;5.30;;
59938;SDS011;45801;51.810;19.444;2024-01-16T13:14:26;10.80;;;5.30;;
59938;SDS011;45801;51.810;19.444;2024-01-16T13:16:53;18.50;;;6.00;;
59938;SDS011;45801;51.810;19.444;2024-01-16T13:19:23;10.60;;;5.50;;
59938;SDS011;45801;51.810;19.444;2024-01-16T13:21:50;11.90;;;5.20;;
59938;SDS011;45801;51.810;19.444;2024-01-16T13:24:17;9.20;;;4.20;;
59938;SDS011;45801;51.810;19.444;2024-01-16T13:26:47;15.30;;;6.70;;
59938;SDS011;45801;51.810;19.444;2024-01-16T13:29:14;13.20;;;5.20;;
59938;SDS011;45801;51.810;19.444;2024-01-16T13:31:41;15.00;;;6.70;;
59938;SDS011;45801;51.810;19.444;2024-01-16T13:34:08;13.70;;;5.90;;
59938;SDS011;45801;51.810;19.444;2024-01-16T13:36:35;13.10;;;6.00;;
59938;SDS011;45801;51.810;19.444;2024-01-16T13:39:02;14.10;;;5.60;;
59938;SDS011;45801;51.810;19.444;2024-01-16T13:41:29;13.20;;;5.30;;
59938;SDS011;45801;51.810;19.444;2024-01-16T13:43:56;12.90;;;5.10;;
59938;SDS011;45801;51.810;19.444;2024-01-16T13:46:23;12.90;;;5.70;;
59938;SDS011;45801;51.810;19.444;2024-01-16T13:48:49;11.60;;;5.40;;
59938;SDS011;45801;51.810;19.444;2024-01-16T13:51:16;11.10;;;4.70;;
59938;SDS011;45801;51.810;19.444;2024-01-16T13:53:43;11.10;;;4.00;;
59938;SDS011;45801;51.810;19.444;2024-01-16T13:56:09;10.90;;;4.20;;
59938;SDS011;45801;51.810;19.444;2024-01-16T13:58:36;11.70;;;4.50;;
59938;SDS011;45801;51.810;19.444;2024-01-16T14:01:03;11.30;;;4.50;;
59938;SDS011;45801;51.810;19.444;2024-01-16T14:03:30;10.00;;;4.70;;
59938;SDS011;45801;51.810;19.444;2024-01-16T14:05:56;9.50;;;5.10;;
59938;SDS011;45801;51.810;19.444;2024-01-16T14:08:23;12.60;;;4.80;;
59938;SDS011;45801;51.810;19.444;2024-01-16T14:10:50;11.50;;;5.50;;
59938;SDS011;45801;51.810;19.444;2024-01-16T14:13:17;9.80;;;4.50;;
59938;SDS011;45801;51.810;19.444;2024-01-16T14:15:44;9.60;;;4.60;;
59938;SDS011;45801;51.810;19.444;2024-01-16T14:18:10;11.40;;;4.10;;
59938;SDS011;45801;51.810;19.444;2024-01-16T14:20:37;11.80;;;4.20;;
59938;SDS011;45801;51.810;19.444;2024-01-16T14:23:04;10.20;;;4.30;;
59938;SDS011;45801;51.810;19.444;2024-01-16T14:25:30;10.20;;;4.60;;
59938;SDS011;45801;51.810;19.444;2024-01-16T14:28:01;11.50;;;5.60;;
59938;SDS011;45801;51.810;19.444;2024-01-16T14:30:32;9.90;;;4.30;;
59938;SDS011;45801;51.810;19.444;2024-01-16T14:33:01;9.10;;;3.70;;
59938;SDS011;45801;51.810;19.444;2024-01-16T14:35:28;10.50;;;4.00;;
59938;SDS011;45801;51.810;19.444;2024-01-16T14:37:54;7.70;;;3.80;;
59938;SDS011;45801;51.810;19.444;2024-01-16T14:40:21;8.70;;;3.90;;
59938;SDS011;45801;51.810;19.444;2024-01-16T14:42:52;9.10;;;3.70;;
59938;SDS011;45801;51.810;19.444;2024-01-16T14:45:20;7.70;;;3.90;;
59938;SDS011;45801;51.810;19.444;2024-01-16T14:47:47;9.10;;;3.70;;
59938;SDS011;45801;51.810;19.444;2024-01-16T14:50:16;8.80;;;4.00;;
59938;SDS011;45801;51.810;19.444;2024-01-16T14:52:45;9.00;;;4.10;;
59938;SDS011;45801;51.810;19.444;2024-01-16T14:55:12;10.00;;;5.00;;
59938;SDS011;45801;51.810;19.444;2024-01-16T14:57:38;12.20;;;6.00;;
59938;SDS011;45801;51.810;19.444;2024-01-16T15:00:13;10.90;;;4.60;;